CheckWX is a tool to help pilots better visualize weather data.  It is not intended as a substitute for an official pre-flight weather briefing.

14:46:56 UTC

HEBA TAF
Borg El Arab International Airport
Alexandria, Egypt
TAF HEBA 231100Z 2312/2418 03013KT 9999 SCT020 TEMPO 2312/2318 7000 RA BKN020 BECMG 2406/2408 30010G20KT

Mar-23@
12:00 UTC

Mar-23 @ 12:00 UTC

Mar-24@
06:00 UTC

Mar-24 @ 06:00 UTC

TAF HEBA 231100Z 2312/2418 03013KT 9999 SCT020
Wind
  • 030° at 13 KTS
Cloud Levels
  • Scattered at 2,000' AGL

Mar-23@
12:00 UTC

Mar-23 @ 12:00 UTC

Mar-23@
18:00 UTC

Mar-23 @ 18:00 UTC

TEMPO 2312/2318 7000 RA BKN020

Temporary

Temporary Changes expected for less than half the time period

Conditions
Rain
Cloud Levels
  • Broken at 2,000' AGL

Mar-24@
06:00 UTC

Mar-24 @ 06:00 UTC

Mar-24@
18:00 UTC

Mar-24 @ 18:00 UTC

BECMG 2406/2408 30010G20KT

Becoming

Becoming Conditions expected by Sun, Mar 24, 2019 @ 08:00 UTC

Wind
  • 300° at 10 KTS
  • {Gusting to 20 KTS
Cloud Levels
  • Scattered at 2,000' AGL